Latest Weather Observations for Richmond

IDN60801

Issued at 9:02 am EST Sunday 26 April 2015 (issued every 30 minutes, with the page automatically refreshed every 10 minutes)

About weather observations | Map of weather stations | Latest weather observations for NSW | Other Formats
Station Details ID: 067105 Name: RICHMOND RAAF Lat: -33.60 Lon: 150.78 Height: 19.0 m
Data from the previous 72 hours. | See also: Recent months at Richmond
Date/Time
EST
Temp
°C
App
Temp
°C
Dew
Point
Rel
Hum
%
Delta-T
°C
Wind Press
QNH
hPa
Press
MSL
hPa
Rain
since 9 am
mm
Dir
 
Spd
km/h
Gust
km/h
Spd
kts
Gust
kts
26/09:00am 13.6 12.8 11.1 85 1.3 N 6 7 3 4 1008.9 1008.9 7.6
26/08:30am 13.5 12.8 10.1 80 1.8 NNW 4 7 2 4 1008.9 1008.9 7.6
26/08:00am 12.5 11.0 10.4 87 1.1 W 9 11 5 6 1008.7 1008.7 7.6
26/07:30am 12.1 10.4 11.2 94 0.5 NW 11 13 6 7 1008.2 1008.2 7.6
26/07:00am 11.7 10.8 11.2 97 0.3 N 7 11 4 6 1007.7 1007.7 7.6
26/06:30am 11.6 11.9 10.8 95 0.4 CALM 0 0 0 0 1007.4 1007.3 7.6
26/05:30am 11.8 11.7 10.7 93 0.6 W 2 6 1 3 1007.0 1006.9 7.6
26/05:00am 12.3 12.7 11.4 94 0.5 CALM 0 0 0 0 1006.7 1006.6 7.6
26/04:30am 12.1 12.5 11.2 94 0.5 CALM 0 0 0 0 1006.5 1006.4 7.6
26/04:00am 12.5 12.9 11.4 93 0.6 CALM 0 0 0 0 1006.7 1006.6 7.6
26/03:30am 12.5 12.5 11.2 92 0.7 N 2 6 1 3 1006.9 1006.8 7.6
26/03:00am 12.6 11.2 11.0 90 0.8 E 9 11 5 6 1006.8 1006.7 7.6
26/02:30am 12.7 11.8 10.6 87 1.1 NE 6 9 3 5 1006.8 1006.7 7.6
26/02:00am 13.4 11.1 10.6 83 1.5 N 13 17 7 9 1006.8 1006.7 7.6
26/01:30am 13.9 10.9 10.5 80 1.8 SSW 17 28 9 15 1006.2 1006.1 7.6
26/01:00am 14.1 10.7 10.5 79 1.9 SW 19 30 10 16 1007.1 1007.0 7.2
26/12:30am 13.5 9.9 11.7 89 1.0 N 22 33 12 18 1008.2 1008.2 6.0
26/12:00am 13.4 11.9 11.8 90 0.9 SSW 11 17 6 9 1007.2 1007.1 5.6
 
Date/Time
EST
Temp
°C
App
Temp
°C
Dew
Point
Rel
Hum
%
Delta-T
°C
Wind Press
QNH
hPa
Press
MSL
hPa
Rain
since 9 am
mm
Dir
 
Spd
km/h
Gust
km/h
Spd
kts
Gust
kts
25/11:51pm 13.1 10.7 11.5 90 0.8 SW 15 20 8 11 1007.6 1007.5 5.2
25/11:30pm 12.9 10.0 12.3 96 0.3 WNW 19 24 10 13 1008.4 1008.4 2.8
25/11:00pm 12.5 13.1 11.9 96 0.3 CALM 0 0 0 0 1007.6 1007.5 1.2
25/10:30pm 12.3 11.1 11.7 96 0.3 W 9 11 5 6 1008.1 1008.1 1.2
25/10:00pm 12.6 11.4 11.5 93 0.6 NW 9 11 5 6 1008.1 1008.1 1.2
25/09:30pm 13.6 13.0 11.7 88 1.0 SSE 6 9 3 5 1008.1 1008.1 1.2
25/09:00pm 13.9 11.9 11.4 85 1.3 SSE 13 20 7 11 1008.0 1008.0 1.2
25/08:30pm 14.7 12.2 11.1 79 1.9 S 15 20 8 11 1008.3 1008.3 0.0
25/08:00pm 15.2 12.9 10.4 73 2.5 SSW 13 17 7 9 1007.7 1007.7 0.0
25/07:30pm 15.2 12.9 11.8 80 1.8 SSW 15 22 8 12 1007.2 1007.1 0.0
25/07:00pm 14.8 13.3 11.9 83 1.6 SW 11 15 6 8 1006.9 1006.8 0.0
25/06:30pm 15.1 13.7 12.1 82 1.6 WSW 11 15 6 8 1006.1 1006.0 0.0
25/06:00pm 15.3 14.6 11.9 80 1.8 SW 7 9 4 5 1005.4 1005.3 0.0
25/05:30pm 16.2 14.3 10.5 69 3.0 SSE 11 15 6 8 1005.2 1005.1 0.0
25/05:00pm 17.9 14.8 11.7 67 3.4 SE 19 22 10 12 1004.7 1004.6 0.0
25/04:30pm 19.4 15.8 11.7 61 4.3 SSE 22 30 12 16 1004.3 1004.2 0.0
25/04:00pm 20.6 17.2 10.7 53 5.4 SW 19 26 10 14 1004.6 1004.5 0.0
25/03:30pm 22.4 19.7 12.9 55 5.4 NNE 19 26 10 14 1003.9 1003.8 0.0
25/03:00pm 22.7 19.7 12.6 53 5.8 NE 20 24 11 13 1004.1 1004.0 0.0
25/02:30pm 23.9 21.5 12.5 49 6.5 NE 17 22 9 12 1004.2 1004.1 0.0
25/02:00pm 24.7 23.4 13.6 50 6.5 NE 13 22 7 12 1004.4 1004.3 0.0
25/01:30pm 24.2 23.5 14.3 54 5.9 E 11 17 6 9 1005.0 1004.9 0.0
25/01:00pm 23.6 22.4 12.9 51 6.2 ENE 11 19 6 10 1005.6 1005.5 0.0
25/12:30pm 23.1 22.4 13.3 54 5.7 NE 9 17 5 9 1006.2 1006.1 0.0
25/12:00pm 22.5 21.9 13.6 57 5.2 E 9 15 5 8 1006.8 1006.7 0.0
25/11:30am 22.4 22.5 14.5 61 4.6 NNE 7 11 4 6 1007.3 1007.2 0.0
25/11:00am 20.9 21.3 14.8 68 3.6 ENE 6 15 3 8 1007.7 1007.7 0.0
25/10:30am 18.9 19.2 13.5 71 3.1 ESE 4 7 2 4 1008.1 1008.1 0.0
25/10:00am 18.2 18.9 13.5 74 2.7 E 2 7 1 4 1008.4 1008.4 0.0
25/09:30am 16.7 17.6 13.0 79 2.1 CALM 0 0 0 0 1008.9 1008.9 0.0
25/09:00am 15.1 16.0 12.8 86 1.3 CALM 0 0 0 0 1009.0 1009.0 0.0
25/08:30am 14.3 15.2 13.0 92 0.7 CALM 0 0 0 0 1008.9 1008.9 0.0
25/08:00am 13.5 14.3 12.7 95 0.4 CALM 0 0 0 0 1008.7 1008.7 0.0
25/07:30am 12.8 13.6 12.5 98 0.2 CALM 0 0 0 0 1008.3 1008.3 0.0
25/07:00am 11.9 12.4 11.6 98 0.2 CALM 0 0 0 0 1008.2 1008.2 0.0
25/06:30am 11.3 11.5 10.5 95 0.4 CALM 0 0 0 0 1007.7 1007.7 0.0
25/06:00am 11.6 11.1 10.8 95 0.4 NE 4 7 2 4 1007.5 1007.4 0.0
25/05:30am 12.0 12.4 11.2 95 0.4 CALM 0 0 0 0 1007.3 1007.2 0.0
25/05:00am 12.2 12.6 11.4 95 0.4 CALM 0 0 0 0 1007.4 1007.3 0.0
25/04:30am 12.2 12.6 11.1 93 0.6 CALM 0 0 0 0 1007.3 1007.2 0.0
25/04:00am 12.7 12.0 11.3 91 0.7 WSW 6 9 3 5 1007.1 1007.0 0.0
25/03:30am 12.2 11.4 10.9 92 0.7 WNW 6 9 3 5 1007.2 1007.1 0.0
25/03:00am 12.5 11.3 11.6 94 0.5 NW 9 13 5 7 1007.2 1007.1 0.0
25/02:30am 13.1 12.5 11.8 92 0.7 NW 6 9 3 5 1007.3 1007.2 0.0
25/02:00am 13.9 14.5 11.9 88 1.1 CALM 0 7 0 4 1007.4 1007.3 0.0
25/01:30am 14.5 13.6 12.5 88 1.1 N 9 11 5 6 1007.4 1007.3 0.0
25/01:00am 13.9 13.4 12.6 92 0.7 NNW 7 9 4 5 1007.4 1007.3 0.0
25/12:30am 13.5 14.3 12.4 93 0.6 CALM 0 0 0 0 1007.5 1007.4 0.0
25/12:00am 14.3 14.4 12.7 90 0.9 NW 4 7 2 4 1007.3 1007.2 0.0
 
Date/Time
EST
Temp
°C
App
Temp
°C
Dew
Point
Rel
Hum
%
Delta-T
°C
Wind Press
QNH
hPa
Press
MSL
hPa
Rain
since 9 am
mm
Dir
 
Spd
km/h
Gust
km/h
Spd
kts
Gust
kts
24/11:30pm 14.0 14.8 12.6 91 0.8 CALM 0 0 0 0 1007.4 1007.3 0.0
24/11:00pm 14.7 15.3 13.1 90 0.9 WNW 2 7 1 4 1007.3 1007.2 0.0
24/10:30pm 14.9 15.8 12.9 88 1.1 CALM 0 0 0 0 1007.3 1007.2 0.0
24/10:00pm 15.4 15.9 12.7 84 1.5 ENE 2 6 1 3 1007.2 1007.1 0.0
24/09:30pm 16.0 15.2 12.9 82 1.7 W 9 11 5 6 1007.1 1007.0 0.0
24/09:00pm 16.1 15.6 12.7 80 1.9 W 7 9 4 5 1007.2 1007.1 0.0
24/08:30pm 17.9 17.6 13.2 74 2.6 W 7 9 4 5 1006.9 1006.8 0.0
24/08:00pm 18.9 18.5 12.9 68 3.4 WNW 7 9 4 5 1006.7 1006.6 0.0
24/07:30pm 19.6 19.4 13.5 68 3.5 W 7 9 4 5 1006.4 1006.3 0.0
24/07:00pm 19.9 19.6 13.4 66 3.7 SW 7 9 4 5 1006.1 1006.0 0.0
24/06:30pm 20.7 20.8 13.9 65 3.9 WNW 6 7 3 4 1005.7 1005.6 0.0
24/06:00pm 21.3 20.7 13.5 61 4.5 W 9 13 5 7 1005.4 1005.3 0.0
24/05:30pm 22.7 21.7 13.5 56 5.3 WSW 11 15 6 8 1005.0 1004.9 0.0
24/05:00pm 23.6 22.6 13.5 53 5.9 WSW 11 17 6 9 1004.8 1004.7 0.0
24/04:30pm 24.5 25.9 14.3 53 6.0 CALM 0 0 0 0 1004.6 1004.5 0.0
24/04:00pm 24.9 25.7 15.8 57 5.5 WSW 6 7 3 4 1004.4 1004.3 0.0
24/03:30pm 25.0 25.2 14.8 53 6.1 NW 7 11 4 6 1004.3 1004.2 0.0
24/03:00pm 24.6 23.8 14.1 52 6.2 WNW 11 17 6 9 1004.3 1004.2 0.0
24/02:30pm 25.0 23.6 13.5 48 6.7 NNW 13 24 7 13 1004.4 1004.3 0.0
24/02:00pm 24.8 24.0 14.0 51 6.4 WSW 11 17 6 9 1004.5 1004.4 0.0
24/01:30pm 25.9 25.9 15.3 52 6.4 WNW 9 19 5 10 1004.7 1004.6 0.0
24/01:00pm 25.0 25.8 15.9 57 5.6 NNE 6 9 3 5 1005.0 1004.9 0.0
24/12:30pm 24.4 24.4 15.3 57 5.5 NNE 9 13 5 7 1005.4 1005.3 0.0
24/12:00pm 23.5 23.9 16.3 64 4.4 NNE 9 15 5 8 1005.9 1005.8 0.0
24/11:30am 22.4 23.0 16.9 71 3.4 NNE 9 13 5 7 1006.5 1006.4 0.0
24/11:00am 20.8 21.9 17.0 79 2.3 NE 7 13 4 7 1007.0 1006.9 0.0
24/10:30am 19.3 20.5 16.9 86 1.5 ESE 6 9 3 5 1007.2 1007.1 0.0
24/10:02am 17.5 19.7 16.4 93 0.7 CALM 0 0 0 0 1007.6 1007.5 0.0
24/10:00am 17.1 19.1 16.0 93 0.7 CALM 0 0 0 0 1007.6 1007.5 0.0
24/09:35am 15.9 17.4 15.7 99 0.1 E 2 6 1 3 1007.9 1007.9 0.0
24/09:30am 15.5 16.5 15.3 99 0.1 E 4 9 2 5 1007.9 1007.9 0.0
24/09:04am 14.5 15.1 14.3 99 0.1 NNE 4 9 2 5 1008.1 1008.1 0.0
24/09:00am 14.4 15.7 14.2 99 0.1 CALM 0 6 0 3 1008.3 1008.3 0.2
24/08:41am 13.9 13.9 13.7 99 0.1 N 6 9 3 5 1008.5 1008.5 0.2
24/08:30am 14.0 13.9 13.8 99 0.1 NE 7 9 4 5 1008.5 1008.5 0.2
24/08:04am 13.9 13.9 13.7 99 0.1 NNW 6 7 3 4 1008.4 1008.4 0.2
24/08:00am 13.8 13.8 13.6 99 0.1 NW 6 7 3 4 1008.4 1008.4 0.2
24/07:30am 13.5 14.5 13.3 99 0.1 CALM 0 4 0 2 1008.3 1008.3 0.2
24/07:00am 13.4 14.0 13.2 99 0.1 ENE 2 7 1 4 1008.1 1008.1 0.2
24/06:30am 13.2 14.1 13.0 99 0.1 CALM 0 0 0 0 1007.9 1007.9 0.2
24/06:00am 13.2 14.1 12.9 98 0.2 CALM 0 0 0 0 1007.8 1007.8 0.2
24/05:30am 13.5 14.5 13.2 98 0.2 CALM 0 0 0 0 1007.8 1007.8 0.2
24/05:00am 13.6 14.6 13.3 98 0.2 CALM 0 6 0 3 1007.7 1007.7 0.2
24/04:30am 13.6 14.6 13.3 98 0.2 CALM 0 0 0 0 1007.6 1007.5 0.2
24/04:00am 13.7 13.6 13.4 98 0.2 E 6 7 3 4 1007.9 1007.9 0.2
24/03:51am 13.8 13.6 13.5 98 0.2 ESE 7 7 4 4 1007.8 1007.8 0.2
24/03:50am 13.9 13.7 13.6 98 0.2 ESE 7 7 4 4 1007.8 1007.8 0.2
24/03:48am 13.9 13.9 13.6 98 0.2 ESE 6 7 3 4 1007.7 1007.7 0.2
24/03:31am 13.9 15.0 13.6 98 0.2 CALM 0 0 0 0 1008.0 1008.0 0.2
24/03:30am 13.9 15.0 13.6 98 0.2 CALM 0 4 0 2 1008.0 1008.0 0.2
24/03:29am 13.9 15.0 13.6 98 0.2 CALM 0 6 0 3 1008.0 1008.0 0.2
24/03:01am 13.9 13.9 13.6 98 0.2 NE 6 7 3 4 1008.3 1008.3 0.2
24/03:00am 13.9 13.9 13.6 98 0.2 NE 6 7 3 4 1008.3 1008.3 0.2
24/02:53am 14.0 13.8 13.7 98 0.2 NE 7 9 4 5 1008.4 1008.4 0.2
24/02:49am 14.0 13.8 13.7 98 0.2 NE 7 9 4 5 1008.5 1008.5 0.2
24/02:44am 14.3 14.4 14.0 98 0.2 E 6 7 3 4 1008.5 1008.5 0.2
24/02:33am 14.2 14.3 13.9 98 0.2 ESE 6 7 3 4 1008.5 1008.5 0.2
24/02:30am 14.2 14.3 13.9 98 0.2 SE 6 7 3 4 1008.5 1008.5 0.2
24/02:00am 14.7 16.1 14.4 98 0.2 CALM 0 0 0 0 1008.8 1008.8 0.2
24/01:38am 15.0 16.5 14.7 98 0.2 CALM 0 0 0 0 1008.9 1008.9 0.2
24/01:30am 15.0 15.8 14.7 98 0.2 NE 4 7 2 4 1009.0 1009.0 0.2
24/01:00am 15.3 17.0 15.1 99 0.1 CALM 0 0 0 0 1009.2 1009.2 0.2
24/12:54am 15.2 16.8 14.9 98 0.2 CALM 0 0 0 0 1009.3 1009.3 0.2
24/12:30am 15.1 16.7 14.8 98 0.2 CALM 0 0 0 0 1009.4 1009.4 0.2
24/12:23am 14.9 16.4 14.6 98 0.2 CALM 0 0 0 0 1009.4 1009.4 0.2
24/12:00am 14.9 16.4 14.6 98 0.2 CALM 0 0 0 0 1009.5 1009.5 0.2
 
Date/Time
EST
Temp
°C
App
Temp
°C
Dew
Point
Rel
Hum
%
Delta-T
°C
Wind Press
QNH
hPa
Press
MSL
hPa
Rain
since 9 am
mm
Dir
 
Spd
km/h
Gust
km/h
Spd
kts
Gust
kts
23/11:30pm 14.9 16.4 14.6 98 0.2 CALM 0 0 0 0 1009.8 1009.8 0.2
23/11:00pm 15.1 16.6 14.6 97 0.3 CALM 0 0 0 0 1010.2 1010.2 0.2
23/10:30pm 15.5 15.5 15.2 98 0.2 WNW 9 9 5 5 1010.5 1010.5 0.2
23/10:00pm 15.9 17.7 15.6 98 0.2 CALM 0 0 0 0 1010.6 1010.6 0.2
23/09:30pm 15.5 16.8 15.2 98 0.2 N 2 7 1 4 1010.9 1010.9 0.2
23/09:00pm 16.0 17.8 15.5 97 0.3 CALM 0 0 0 0 1010.8 1010.8 0.2
23/08:30pm 16.4 18.4 15.9 97 0.3 CALM 0 0 0 0 1011.0 1011.0 0.2
23/08:00pm 16.4 18.2 15.6 95 0.5 CALM 0 0 0 0 1011.0 1011.0 0.2
23/07:30pm 16.7 18.2 15.6 93 0.6 NW 2 7 1 4 1010.8 1010.8 0.2
23/07:00pm 17.6 19.7 16.3 92 0.8 CALM 0 0 0 0 1010.8 1010.8 0.2
23/06:30pm 18.2 20.3 16.2 88 1.2 CALM 0 0 0 0 1010.5 1010.5 0.2
23/06:00pm 18.4 19.2 15.8 85 1.5 N 6 6 3 3 1010.2 1010.2 0.2
23/05:30pm 19.5 20.2 16.2 81 2.0 NNE 7 7 4 4 1009.8 1009.8 0.2
23/05:00pm 20.6 21.1 15.6 73 3.0 NE 7 9 4 5 1009.4 1009.4 0.2
23/04:30pm 21.2 21.2 15.3 69 3.5 ENE 9 13 5 7 1009.2 1009.2 0.2
23/04:00pm 21.5 20.7 15.1 67 3.8 ESE 13 19 7 10 1009.2 1009.2 0.2
23/03:30pm 21.6 20.8 16.1 71 3.3 E 15 19 8 10 1009.4 1009.4 0.2
23/03:00pm 21.4 21.2 15.7 70 3.4 ENE 11 13 6 7 1009.6 1009.6 0.2
23/02:30pm 21.0 20.6 16.2 74 2.9 E 13 17 7 9 1009.7 1009.7 0.2
23/02:00pm 21.1 20.1 14.7 67 3.8 ESE 13 17 7 9 1009.8 1009.8 0.2
23/01:30pm 21.6 20.9 14.3 63 4.3 SE 11 13 6 7 1009.9 1009.9 0.2
23/01:00pm 22.3 21.5 13.9 59 4.9 S 11 15 6 8 1010.0 1010.0 0.2
23/12:30pm 22.4 21.5 13.7 58 5.1 SSE 11 22 6 12 1010.5 1010.5 0.2
23/12:00pm 21.9 22.5 15.3 66 3.9 SW 6 11 3 6 1011.0 1011.0 0.2
23/11:30am 21.6 22.8 15.9 70 3.4 S 4 7 2 4 1011.6 1011.6 0.2
23/11:00am 21.2 22.1 16.0 72 3.1 NNE 6 9 3 5 1012.0 1012.0 0.2
23/10:30am 20.3 20.7 15.3 73 3.0 S 7 11 4 6 1012.3 1012.3 0.0
23/10:00am 19.9 20.8 16.5 81 2.0 SSE 7 13 4 7 1012.6 1012.6 0.0
23/09:30am 19.1 20.4 17.2 89 1.2 N 6 7 3 4 1012.6 1012.6 0.0

Other Formats:

Comma delimited format used in spreadsheet applications
http://www.bom.gov.au/fwo/IDN60801/IDN60801.95753.axf

JavaScript Object Notation format (JSON) in row-major order
http://www.bom.gov.au/fwo/IDN60801/IDN60801.95753.json